Conover, Ohio
Current Conditions -  °F | °C
As of 5:56 AM on Friday 24 Oct 2014 (Local Time) from KDAY Reporting Station
Overcast Overcast  
Wind Chill: 45°   Ceiling: 20000
Heat Index: 45°   Visibility: 8mi
Dew Point: 40°   Wind: 0mph
Humidity: 82%   Direction: NA
Pressure: 30.12"   Gusts: NA
Location:  40.14°N, 84.05°W
Report Text: KDAY 240956Z 00000KT 8SM OVC200 07/04 A3012 RMK AO2 SLP202 T00720044
Loading
Personal Weather Stations






























Interactive Weather Map
Tropical Storm Tracking
New forecast layout! Learn more

10-Day Weather Forecast

Advertisements
Track Severe Weather on mobile